Terminal Aerodrome Forecast
Issued by NWS Paducah, KY

Home | Current Version | Previous Version | Text Only | Print | Product List | Glossary Off
Versions: 1 2 3 4 5 6 7 8 9 10 11 12 13 14 15 16 17 18

000
FTUS43 KPAH 011900 AAA
TAFPAH
TAF AMD
KPAH 011906Z 0119/0218 22007KT 2SM -RA BR OVC006
      TEMPO 0119/0121 1SM -RA BR
     FM012100 21010KT 4SM BR OVC007
     FM020000 27012G20KT 5SM BR OVC012
     FM020300 30015G25KT P6SM OVC015
     FM021600 33012G20KT P6SM SCT015=

USA.gov is the U.S. government's official web portal to all federal, state and local government web resources and services.